Time;durP1;ratioP1;P1;durP2;ratioP2;P2;SDS_P1;SDS_P2;PMS_P1;PMS_P2;Temp;Humidity;BMP_temperature;BMP_pressure;BME280_temperature;BME280_humidity;BME280_pressure;Samples;Min_cycle;Max_cycle;Signal;HPM_P1;HPM_P2
2021/09/03 00:02:10;;;;;;;2.63;2.33;;;;;;;27.08;35.48;97149.53;4973966;28;20050;-30
2021/09/03 00:04:35;;;;;;;3.05;2.72;;;;;;;27.06;35.46;97140.88;4978953;28;20564;-30
2021/09/03 00:07:01;;;;;;;3.55;2.67;;;;;;;27.08;35.49;97146.06;4977295;28;20022;-31
2021/09/03 00:09:26;;;;;;;3.90;2.88;;;;;;;27.07;35.50;97139.94;4975208;28;20034;-30
2021/09/03 00:11:51;;;;;;;5.45;2.88;;;;;;;27.07;35.55;97137.31;4974938;28;20030;-29
2021/09/03 00:14:17;;;;;;;8.32;2.83;;;;;;;27.08;35.54;97135.53;4979634;28;20026;-27
2021/09/03 00:16:42;;;;;;;5.00;2.67;;;;;;;27.06;35.62;97135.63;4975968;28;20041;-31
2021/09/03 00:19:07;;;;;;;4.68;2.58;;;;;;;27.08;35.44;97139.00;4964386;28;20504;-29
2021/09/03 00:21:33;;;;;;;3.45;2.67;;;;;;;27.07;35.54;97132.06;4966490;28;20025;-31
2021/09/03 00:23:59;;;;;;;4.15;3.03;;;;;;;27.08;35.53;97125.03;4966945;28;20042;-32
2021/09/03 00:26:24;;;;;;;3.70;2.80;;;;;;;27.07;35.52;97126.78;4972523;28;20057;-30
2021/09/03 00:28:49;;;;;;;3.60;2.60;;;;;;;27.08;35.61;97117.97;4972814;28;20039;-30
2021/09/03 00:31:15;;;;;;;3.45;2.60;;;;;;;27.09;35.60;97124.09;4981892;28;20027;-28
2021/09/03 00:33:40;;;;;;;3.72;2.78;;;;;;;27.08;35.85;97112.72;4982659;28;20488;-29
2021/09/03 00:36:06;;;;;;;3.47;2.60;;;;;;;27.08;35.61;97117.97;4982220;28;20034;-35
2021/09/03 00:38:31;;;;;;;2.75;2.50;;;;;;;27.06;35.60;97111.09;4982312;28;20282;-31
2021/09/03 00:40:57;;;;;;;3.28;2.78;;;;;;;27.07;35.61;97115.41;4981722;28;21822;-29
2021/09/03 00:43:22;;;;;;;5.07;2.70;;;;;;;27.07;35.54;97116.28;4982876;28;20492;-30
2021/09/03 00:45:48;;;;;;;3.08;2.40;;;;;;;27.07;35.45;97116.28;4977979;28;20501;-30
2021/09/03 00:48:13;;;;;;;2.80;2.50;;;;;;;27.07;35.53;97111.00;4977749;28;20029;-33
2021/09/03 00:50:40;;;;;;;3.15;2.60;;;;;;;27.07;35.73;97111.00;4982865;28;20030;-32
2021/09/03 00:53:05;;;;;;;3.35;2.50;;;;;;;27.07;35.73;97105.75;4983514;28;20489;-30
2021/09/03 00:55:31;;;;;;;2.65;2.25;;;;;;;27.08;35.58;97106.63;4981026;28;20041;-32
2021/09/03 00:57:56;;;;;;;3.72;2.33;;;;;;;27.07;35.54;97103.13;4980011;28;20022;-30
2021/09/03 01:00:21;;;;;;;3.03;2.58;;;;;;;27.08;35.59;97106.63;4979605;28;20022;-31
2021/09/03 01:02:47;;;;;;;3.42;2.90;;;;;;;27.07;35.61;97105.75;4986929;28;20677;-32
2021/09/03 01:05:12;;;;;;;3.17;2.67;;;;;;;27.08;35.50;97104.81;4989826;28;20034;-29
2021/09/03 01:07:38;;;;;;;2.80;2.50;;;;;;;27.08;35.61;97107.44;4984620;28;20022;-31
2021/09/03 01:10:04;;;;;;;3.50;2.80;;;;;;;27.08;35.70;97102.19;4945881;28;20141;-34
2021/09/03 01:12:29;;;;;;;4.80;2.55;;;;;;;27.07;35.62;97100.50;4982832;28;20499;-31
2021/09/03 01:14:55;;;;;;;2.85;2.45;;;;;;;27.08;35.70;97101.34;4978307;28;20106;-31
2021/09/03 01:17:20;;;;;;;2.70;2.40;;;;;;;27.07;35.61;97105.75;4965524;28;20049;-30
2021/09/03 01:19:49;;;;;;;2.60;2.20;;;;;;;27.08;35.72;97098.72;4979123;28;20045;-29
2021/09/03 01:22:14;;;;;;;2.53;2.20;;;;;;;27.09;35.64;97103.91;4983822;28;20026;-29
2021/09/03 01:24:40;;;;;;;2.67;2.30;;;;;;;27.08;35.64;97102.19;4982822;28;20529;-33
2021/09/03 01:27:05;;;;;;;3.20;2.15;;;;;;;27.09;35.61;97097.78;4982191;28;20026;-31
2021/09/03 01:29:30;;;;;;;3.72;2.50;;;;;;;27.08;35.67;97096.91;4977691;28;20038;-29
2021/09/03 01:31:56;;;;;;;2.50;2.28;;;;;;;27.08;35.54;97102.19;4985235;28;20026;-30
2021/09/03 01:34:21;;;;;;;4.20;2.20;;;;;;;27.09;35.69;97103.03;4983803;28;20648;-32
2021/09/03 01:36:47;;;;;;;2.78;2.38;;;;;;;27.08;35.70;97096.91;4980659;28;20033;-28
2021/09/03 01:39:12;;;;;;;3.28;2.00;;;;;;;27.07;35.74;97089.09;4980199;28;20049;-29
2021/09/03 01:41:37;;;;;;;3.55;2.40;;;;;;;27.08;35.65;97088.19;4959717;28;20030;-31
2021/09/03 01:44:03;;;;;;;3.30;2.17;;;;;;;27.08;35.64;97086.41;4979209;28;20504;-31
2021/09/03 01:46:28;;;;;;;2.75;2.35;;;;;;;27.08;35.75;97086.41;4978808;28;20037;-29
2021/09/03 01:48:54;;;;;;;2.42;2.20;;;;;;;27.09;35.64;97088.13;4975994;28;20523;-29
2021/09/03 01:51:19;;;;;;;4.25;2.60;;;;;;;27.08;35.65;97081.13;4972341;28;20026;-29
2021/09/03 01:53:44;;;;;;;2.33;2.13;;;;;;;27.08;35.61;97083.78;4976187;28;20034;-29
2021/09/03 01:56:10;;;;;;;2.15;1.95;;;;;;;27.08;35.67;97086.41;4979044;28;20053;-32
2021/09/03 01:58:35;;;;;;;2.63;2.10;;;;;;;27.09;35.62;97093.38;4981838;28;20030;-36
2021/09/03 02:01:01;;;;;;;3.08;2.00;;;;;;;27.08;35.66;97091.66;4978160;28;20036;-30
2021/09/03 02:03:26;;;;;;;2.50;2.30;;;;;;;27.09;35.67;97082.88;4983461;28;20049;-28
2021/09/03 02:05:51;;;;;;;2.15;1.80;;;;;;;27.08;35.55;97081.13;4977281;28;20022;-31
2021/09/03 02:08:17;;;;;;;2.00;1.80;;;;;;;27.07;35.72;97076.81;4984366;28;20026;-31
2021/09/03 02:10:42;;;;;;;2.13;1.95;;;;;;;27.09;35.70;97082.88;4977750;28;20036;-33
2021/09/03 02:13:08;;;;;;;1.83;1.70;;;;;;;27.09;35.73;97074.09;4979798;28;20034;-30
2021/09/03 02:15:33;;;;;;;4.05;2.72;;;;;;;27.08;35.50;97082.94;4945591;28;20557;-33
2021/09/03 02:17:58;;;;;;;2.72;2.15;;;;;;;27.06;35.66;97072.50;4973217;28;20914;-31
2021/09/03 02:20:24;;;;;;;2.75;2.10;;;;;;;27.08;35.53;97075.06;4978381;28;20060;-30
2021/09/03 02:22:49;;;;;;;2.65;2.30;;;;;;;27.07;35.66;97068.06;4983367;28;20030;-33
2021/09/03 02:25:15;;;;;;;2.70;2.30;;;;;;;27.07;35.67;97068.94;4962509;28;20742;-29
2021/09/03 02:27:40;;;;;;;2.70;2.05;;;;;;;27.06;35.73;97067.25;4980958;28;20765;-31
2021/09/03 02:30:06;;;;;;;2.63;2.25;;;;;;;27.08;35.70;97068.00;4958337;28;20030;-30
2021/09/03 02:32:31;;;;;;;2.88;2.28;;;;;;;27.08;35.67;97064.53;4979466;28;20036;-32
2021/09/03 02:34:57;;;;;;;2.15;1.92;;;;;;;27.07;35.82;97057.53;4971537;28;20057;-29
2021/09/03 02:37:22;;;;;;;2.42;2.10;;;;;;;27.06;35.75;97053.22;4975889;28;20030;-34
2021/09/03 02:39:47;;;;;;;2.53;2.00;;;;;;;27.07;35.74;97055.78;4974799;28;20038;-31
2021/09/03 02:42:13;;;;;;;5.38;2.10;;;;;;;27.05;35.81;97052.41;4976827;28;20034;-30
2021/09/03 02:44:38;;;;;;;2.60;1.90;;;;;;;27.07;35.67;97061.03;4982047;28;20026;-31
2021/09/03 02:47:04;;;;;;;2.08;1.90;;;;;;;27.07;35.78;97057.53;4982709;28;20034;-30
2021/09/03 02:49:29;;;;;;;2.50;2.15;;;;;;;27.06;35.89;97051.47;4978252;28;20611;-32
2021/09/03 02:51:54;;;;;;;6.82;2.17;;;;;;;27.07;35.77;97047.88;4979269;28;20733;-30
2021/09/03 02:54:20;;;;;;;2.25;2.03;;;;;;;27.07;35.83;97042.63;4974747;28;20033;-32
2021/09/03 02:56:45;;;;;;;3.20;2.10;;;;;;;27.06;35.70;97046.19;4981076;28;20041;-31
2021/09/03 02:59:11;;;;;;;2.28;1.92;;;;;;;27.07;35.75;97040.00;4981789;28;20137;-30
2021/09/03 03:01:36;;;;;;;2.15;1.92;;;;;;;27.07;35.73;97042.63;4973751;28;20035;-33
2021/09/03 03:04:01;;;;;;;2.28;2.00;;;;;;;27.07;35.78;97037.38;4979486;28;20478;-32
2021/09/03 03:06:27;;;;;;;12.45;2.50;;;;;;;27.07;35.64;97036.50;4979059;28;20034;-30
2021/09/03 03:08:52;;;;;;;2.70;2.28;;;;;;;27.06;35.66;97038.31;4970960;28;20030;-29
2021/09/03 03:11:18;;;;;;;4.25;2.10;;;;;;;27.06;35.66;97035.66;4976468;28;20018;-32
2021/09/03 03:13:47;;;;;;;2.65;2.10;;;;;;;27.06;35.78;97035.66;4980707;28;20030;-31
2021/09/03 03:16:14;;;;;;;3.40;2.05;;;;;;;27.06;35.75;97035.66;4981736;28;20033;-35
2021/09/03 03:18:40;;;;;;;4.15;2.00;;;;;;;27.04;35.73;97027.00;4977748;28;20322;-30
2021/09/03 03:21:05;;;;;;;2.55;1.95;;;;;;;27.06;35.85;97030.41;4979885;28;20030;-30
2021/09/03 03:23:30;;;;;;;2.05;1.83;;;;;;;27.05;35.78;97031.34;4979475;28;20034;-31
2021/09/03 03:25:56;;;;;;;3.30;1.80;;;;;;;27.06;35.86;97029.56;4981938;28;20022;-31
2021/09/03 03:28:21;;;;;;;1.88;1.52;;;;;;;27.06;35.89;97030.41;4979442;28;20068;-29
2021/09/03 03:30:47;;;;;;;3.25;2.10;;;;;;;27.05;35.85;97020.84;4979827;28;20676;-29
2021/09/03 03:33:12;;;;;;;2.63;1.95;;;;;;;27.04;35.75;97020.91;4976687;28;20034;-32
2021/09/03 03:35:37;;;;;;;2.92;1.85;;;;;;;27.05;35.76;97026.09;4979312;28;20061;-31
2021/09/03 03:38:03;;;;;;;2.83;1.80;;;;;;;27.06;35.73;97024.28;4974190;28;20022;-32
2021/09/03 03:40:28;;;;;;;1.98;1.80;;;;;;;27.04;35.81;97019.09;4981318;28;20057;-31
2021/09/03 03:42:54;;;;;;;2.58;1.88;;;;;;;27.05;35.78;97017.34;4978310;28;20052;-33
2021/09/03 03:45:19;;;;;;;2.35;1.75;;;;;;;27.05;35.76;97018.19;4978883;28;20045;-33
2021/09/03 03:47:45;;;;;;;2.10;1.90;;;;;;;27.05;35.80;97010.31;4978514;28;20078;-28
2021/09/03 03:50:11;;;;;;;2.13;1.90;;;;;;;27.05;35.74;97018.19;4981064;28;20715;-31
2021/09/03 03:52:36;;;;;;;3.72;1.70;;;;;;;27.05;35.77;97017.34;4979010;28;20040;-30
2021/09/03 03:55:01;;;;;;;2.03;1.83;;;;;;;27.05;35.79;97022.59;4978551;28;20035;-31
2021/09/03 03:57:27;;;;;;;2.63;1.58;;;;;;;27.04;35.92;97027.00;4975890;28;20025;-31
2021/09/03 03:59:52;;;;;;;2.22;1.65;;;;;;;27.05;35.78;97026.09;4975608;28;20027;-31
2021/09/03 04:02:18;;;;;;;3.42;1.60;;;;;;;27.05;35.84;97033.97;4971292;28;20132;-31
2021/09/03 04:04:43;;;;;;;2.60;1.83;;;;;;;27.05;35.76;97027.88;4981396;28;20136;-31
2021/09/03 04:07:08;;;;;;;3.13;1.90;;;;;;;27.04;35.74;97026.16;4977233;28;20030;-30
2021/09/03 04:09:34;;;;;;;2.35;1.70;;;;;;;27.05;36.00;97026.09;4985384;28;20026;-33
2021/09/03 04:11:59;;;;;;;1.75;1.65;;;;;;;27.05;35.72;97027.88;4978549;28;20038;-29
2021/09/03 04:14:25;;;;;;;4.13;2.00;;;;;;;27.04;35.71;97027.00;4982205;28;20408;-29
2021/09/03 04:16:50;;;;;;;2.10;1.83;;;;;;;27.02;35.77;97023.63;4979360;28;20320;-30
2021/09/03 04:19:15;;;;;;;4.15;2.03;;;;;;;27.04;35.79;97019.09;4984130;28;20336;-30
2021/09/03 04:21:41;;;;;;;2.67;1.75;;;;;;;27.02;35.75;97018.34;4979375;28;20041;-33
2021/09/03 04:24:06;;;;;;;2.30;1.67;;;;;;;27.04;35.80;97026.16;4978357;28;21122;-30
2021/09/03 04:26:32;;;;;;;3.08;1.80;;;;;;;27.04;35.89;97026.16;4978550;28;20042;-33
2021/09/03 04:28:57;;;;;;;1.88;1.55;;;;;;;27.03;35.92;97027.09;4976902;28;20038;-29
2021/09/03 04:31:23;;;;;;;2.15;1.75;;;;;;;27.02;35.83;97028.03;4983244;28;20038;-28
2021/09/03 04:33:48;;;;;;;2.05;1.80;;;;;;;27.03;35.81;97030.56;4984629;28;20228;-31
2021/09/03 04:36:13;;;;;;;2.03;1.83;;;;;;;27.02;35.90;97033.28;4981160;28;20038;-32
2021/09/03 04:38:39;;;;;;;2.13;1.88;;;;;;;27.03;35.77;97033.19;4984201;28;20834;-32
2021/09/03 04:41:04;;;;;;;1.65;1.52;;;;;;;27.03;35.78;97040.25;4984717;28;20329;-32
2021/09/03 04:43:30;;;;;;;1.70;1.60;;;;;;;27.02;35.80;97038.53;4976052;28;20310;-29
2021/09/03 04:45:55;;;;;;;2.90;1.42;;;;;;;27.03;35.87;97038.47;4985376;28;20026;-32
2021/09/03 04:48:20;;;;;;;1.90;1.70;;;;;;;27.02;35.90;97044.66;4981749;28;20049;-29
2021/09/03 04:50:46;;;;;;;1.50;1.40;;;;;;;27.03;36.07;97035.00;4976865;28;20026;-33
2021/09/03 04:53:11;;;;;;;2.00;1.65;;;;;;;26.97;35.79;97029.13;4979798;28;20040;-29
2021/09/03 04:55:37;;;;;;;2.20;1.50;;;;;;;27.02;35.77;97031.50;4983555;28;20034;-29
2021/09/03 04:58:02;;;;;;;1.70;1.60;;;;;;;27.02;35.80;97034.13;4978893;28;20023;-30
2021/09/03 05:00:27;;;;;;;2.15;1.50;;;;;;;27.02;35.91;97028.88;4975371;28;20034;-33
2021/09/03 05:02:53;;;;;;;2.60;1.40;;;;;;;27.03;35.86;97029.75;4983544;28;20502;-29
2021/09/03 05:05:18;;;;;;;2.55;1.90;;;;;;;27.02;35.82;97025.38;4988035;28;20480;-30
2021/09/03 05:07:44;;;;;;;2.15;1.70;;;;;;;27.02;35.78;97018.34;4974287;28;20062;-34
2021/09/03 05:10:10;;;;;;;1.77;1.67;;;;;;;27.02;35.88;97028.03;4981401;28;20382;-31
2021/09/03 05:12:37;;;;;;;1.80;1.70;;;;;;;27.03;35.82;97029.75;4978234;28;20030;-31
2021/09/03 05:15:13;;;;;;;2.03;1.63;;;;;;;27.01;35.86;97032.44;4983969;28;20731;-30
2021/09/03 05:17:39;;;;;;;1.70;1.50;;;;;;;27.00;35.87;97028.97;4969822;28;20026;-31
2021/09/03 05:20:05;;;;;;;1.75;1.30;;;;;;;27.01;35.86;97027.19;4994541;28;20030;-30
2021/09/03 05:22:32;;;;;;;1.85;1.50;;;;;;;27.01;35.86;97027.19;4977925;28;20037;-31
2021/09/03 05:24:58;;;;;;;2.30;1.40;;;;;;;27.01;35.89;97027.19;4975680;28;20038;-29
2021/09/03 05:27:24;;;;;;;1.58;1.48;;;;;;;27.00;35.89;97026.31;4979661;28;20033;-31
2021/09/03 05:29:49;;;;;;;3.22;1.90;;;;;;;27.01;35.80;97037.72;4972839;28;20109;-33
2021/09/03 05:32:14;;;;;;;1.50;1.40;;;;;;;26.99;35.93;97042.19;4983654;28;20034;-31
2021/09/03 05:34:40;;;;;;;2.03;1.80;;;;;;;27.00;35.90;97044.75;4979511;28;20492;-33
2021/09/03 05:37:05;;;;;;;2.85;1.45;;;;;;;26.99;35.84;97043.06;4973230;28;20034;-30
2021/09/03 05:39:31;;;;;;;1.85;1.60;;;;;;;27.01;35.64;97042.97;4974024;28;20154;-31
2021/09/03 05:41:56;;;;;;;1.60;1.50;;;;;;;27.00;35.83;97036.00;4971089;28;20022;-29
2021/09/03 05:44:21;;;;;;;1.98;1.75;;;;;;;26.95;35.88;97032.75;4982728;28;21146;-34
2021/09/03 05:46:47;;;;;;;1.88;1.67;;;;;;;27.00;35.83;97036.00;4983225;28;20030;-30
2021/09/03 05:49:12;;;;;;;1.67;1.52;;;;;;;27.01;35.81;97029.81;4977967;28;20035;-29
2021/09/03 05:51:38;;;;;;;1.58;1.48;;;;;;;27.00;35.87;97033.34;4983087;28;20981;-35
2021/09/03 05:54:07;;;;;;;2.38;1.52;;;;;;;26.99;35.91;97029.03;4982209;28;20026;-31
2021/09/03 05:56:32;;;;;;;1.77;1.30;;;;;;;26.98;35.75;97028.22;4982706;28;20022;-28
2021/09/03 05:58:58;;;;;;;1.90;1.50;;;;;;;26.98;35.81;97028.22;4972811;28;20049;-28
2021/09/03 06:01:23;;;;;;;2.42;1.60;;;;;;;27.00;35.89;97036.00;4977827;28;20581;-30
2021/09/03 06:03:49;;;;;;;1.98;1.60;;;;;;;26.98;35.84;97038.72;4984456;28;20033;-33
2021/09/03 06:06:14;;;;;;;1.50;1.40;;;;;;;26.98;35.90;97035.25;4978978;28;20424;-30
2021/09/03 06:08:39;;;;;;;3.03;1.60;;;;;;;26.98;35.90;97033.47;4984411;28;20039;-32
2021/09/03 06:11:05;;;;;;;1.73;1.38;;;;;;;26.99;35.77;97039.56;4980064;28;20081;-30
2021/09/03 06:13:30;;;;;;;2.20;1.40;;;;;;;26.98;35.97;97036.09;4986537;28;20826;-32
2021/09/03 06:15:55;;;;;;;1.65;1.40;;;;;;;26.99;35.89;97034.28;4982244;28;20034;-29
2021/09/03 06:18:21;;;;;;;1.65;1.50;;;;;;;26.98;35.82;97032.59;4973146;28;20033;-30
2021/09/03 06:20:46;;;;;;;1.83;1.40;;;;;;;27.00;36.03;97041.25;4982439;28;20515;-28
2021/09/03 06:23:12;;;;;;;1.38;1.27;;;;;;;26.99;35.81;97044.81;4981996;28;20034;-32
2021/09/03 06:25:38;;;;;;;1.70;1.50;;;;;;;27.00;35.79;97049.13;4979342;28;20030;-32
2021/09/03 06:28:03;;;;;;;1.70;1.38;;;;;;;27.00;35.89;97044.75;4979861;28;20412;-35
2021/09/03 06:30:29;;;;;;;1.67;1.52;;;;;;;27.00;35.79;97046.50;4985719;28;20032;-29
2021/09/03 06:32:54;;;;;;;1.70;1.35;;;;;;;26.99;35.78;97037.78;4983609;28;20038;-30
2021/09/03 06:35:19;;;;;;;5.25;2.05;;;;;;;27.00;35.82;97036.00;4973784;28;22919;-31
2021/09/03 06:37:45;;;;;;;11.55;3.17;;;;;;;26.97;35.89;97037.00;4972933;28;20030;-32
2021/09/03 06:40:10;;;;;;;7.57;2.65;;;;;;;26.98;35.79;97037.88;4977248;28;20031;-28
2021/09/03 06:42:36;;;;;;;5.40;3.50;;;;;;;26.98;35.21;97037.88;4979035;28;20356;-30
2021/09/03 06:45:01;;;;;;;6.80;3.88;;;;;;;26.96;34.63;97037.13;4974488;28;20045;-28
2021/09/03 06:47:27;;;;;;;7.45;4.15;;;;;;;26.93;34.46;97031.97;4953405;28;20022;-31
2021/09/03 06:49:53;;;;;;;7.10;4.30;;;;;;;26.90;34.19;97029.50;4977481;28;20046;-30
2021/09/03 06:52:28;;;;;;;12.77;4.38;;;;;;;26.87;34.04;97036.66;4972998;28;20168;-31
2021/09/03 06:54:53;;;;;;;7.63;4.25;;;;;;;26.84;33.93;97033.31;4972394;28;20081;-31
2021/09/03 06:57:19;;;;;;;8.88;4.38;;;;;;;26.81;34.10;97042.22;4976905;28;20463;-29
2021/09/03 06:59:44;;;;;;;8.43;5.05;;;;;;;26.80;34.20;97044.91;4975649;28;20046;-29
2021/09/03 07:02:11;;;;;;;17.45;5.15;;;;;;;26.76;34.21;97044.25;4975239;28;20030;-30
2021/09/03 07:04:36;;;;;;;9.43;4.97;;;;;;;26.75;34.19;97047.81;4975223;28;20026;-32
2021/09/03 07:07:02;;;;;;;8.15;5.22;;;;;;;26.74;34.33;97043.50;4973775;28;20504;-32
2021/09/03 07:09:27;;;;;;;9.45;5.47;;;;;;;26.73;34.34;97039.13;4968522;28;20046;-30
2021/09/03 07:11:53;;;;;;;10.93;6.22;;;;;;;26.72;34.45;97037.44;4971257;28;20093;-30
2021/09/03 07:14:19;;;;;;;9.27;5.13;;;;;;;26.71;34.29;97046.28;4972141;28;20033;-30
2021/09/03 07:16:44;;;;;;;10.98;5.30;;;;;;;26.70;34.51;97045.41;4975332;28;20022;-31
2021/09/03 07:19:10;;;;;;;9.85;5.10;;;;;;;26.69;34.57;97048.16;4973958;28;20041;-28
2021/09/03 07:21:35;;;;;;;9.57;5.50;;;;;;;26.69;34.52;97053.41;4977495;28;20042;-30
2021/09/03 07:24:00;;;;;;;8.98;5.10;;;;;;;26.68;34.65;97052.53;4976778;28;20026;-32
2021/09/03 07:26:27;;;;;;;10.57;5.50;;;;;;;26.69;34.64;97045.53;4961767;28;20079;-32
2021/09/03 07:28:53;;;;;;;10.20;5.18;;;;;;;26.69;34.67;97048.16;4970532;28;20022;-30
2021/09/03 07:31:19;;;;;;;12.60;5.07;;;;;;;26.69;34.74;97048.97;4969541;28;20045;-30
2021/09/03 07:33:44;;;;;;;9.50;4.90;;;;;;;26.70;34.65;97047.22;4973987;28;20037;-30
2021/09/03 07:36:10;;;;;;;7.22;4.88;;;;;;;26.70;34.73;97044.59;4971912;28;20041;-30
2021/09/03 07:38:36;;;;;;;7.65;5.30;;;;;;;26.71;34.75;97043.66;4974514;28;20492;-32
2021/09/03 07:41:01;;;;;;;11.15;5.13;;;;;;;26.71;34.79;97036.63;4973838;28;20053;-32
2021/09/03 07:43:26;;;;;;;10.40;5.25;;;;;;;26.71;34.61;97030.50;4971902;28;20036;-31
2021/09/03 07:45:52;;;;;;;7.60;4.97;;;;;;;26.70;34.63;97032.25;4973305;28;20034;-32
2021/09/03 07:48:17;;;;;;;10.88;5.13;;;;;;;26.72;34.69;97034.81;4972174;28;20417;-33
2021/09/03 07:50:43;;;;;;;9.13;5.30;;;;;;;26.72;34.75;97024.31;4974825;28;20729;-33
2021/09/03 07:53:08;;;;;;;7.97;4.90;;;;;;;26.72;34.55;97026.94;4974916;28;20625;-31
2021/09/03 07:55:34;;;;;;;7.18;5.05;;;;;;;26.69;34.83;97027.13;4973387;28;20049;-32
2021/09/03 07:58:01;;;;;;;9.60;5.53;;;;;;;26.72;34.76;97025.16;4968417;28;20526;-28
2021/09/03 08:00:26;;;;;;;9.73;6.32;;;;;;;26.68;34.26;97015.75;4971781;28;20046;-30
2021/09/03 08:02:52;;;;;;;8.68;6.20;;;;;;;26.70;34.11;97021.75;4976859;28;20033;-30
2021/09/03 08:05:17;;;;;;;13.70;6.45;;;;;;;26.69;34.08;97021.84;4972379;28;20030;-30
2021/09/03 08:07:42;;;;;;;11.77;7.43;;;;;;;26.69;34.34;97021.84;4977153;28;20022;-30
2021/09/03 08:10:09;;;;;;;11.85;6.38;;;;;;;26.67;34.25;97024.56;4966708;28;20077;-31
2021/09/03 08:12:35;;;;;;;10.68;6.78;;;;;;;26.66;34.26;97027.28;4971719;28;20030;-29
2021/09/03 08:15:01;;;;;;;11.27;6.03;;;;;;;26.62;34.36;97018.72;4972503;28;20088;-31
2021/09/03 08:17:26;;;;;;;10.32;6.75;;;;;;;26.61;34.50;97017.84;4977385;28;20985;-34
2021/09/03 08:19:51;;;;;;;11.32;6.07;;;;;;;26.60;34.81;97024.03;4976130;28;20559;-32
2021/09/03 08:22:17;;;;;;;9.13;5.53;;;;;;;26.60;34.60;97018.78;4976535;28;20046;-29
2021/09/03 08:24:42;;;;;;;10.15;5.40;;;;;;;26.62;34.68;97018.72;4970002;28;20404;-28
2021/09/03 08:27:08;;;;;;;9.38;5.38;;;;;;;26.61;34.72;97015.22;4973750;28;20038;-27
2021/09/03 08:29:33;;;;;;;6.50;5.13;;;;;;;26.63;34.88;97023.03;4972707;28;20030;-29
2021/09/03 08:31:59;;;;;;;6.20;4.97;;;;;;;26.66;34.93;97024.63;4971036;28;20030;-27
2021/09/03 08:34:24;;;;;;;8.25;4.95;;;;;;;26.67;34.84;97024.56;4973843;28;20034;-33
2021/09/03 08:36:49;;;;;;;14.15;5.10;;;;;;;26.69;34.94;97021.84;4959929;28;20034;-27
2021/09/03 08:39:16;;;;;;;8.52;4.95;;;;;;;26.72;35.12;97026.94;4980553;28;20101;-30
2021/09/03 08:41:41;;;;;;;9.00;5.65;;;;;;;26.73;35.11;97024.22;4983319;28;20042;-31
2021/09/03 08:44:07;;;;;;;9.05;5.50;;;;;;;26.76;35.06;97027.63;4982445;28;20110;-32
2021/09/03 08:46:33;;;;;;;8.50;5.10;;;;;;;26.78;35.19;97024.00;4984102;28;20499;-29
2021/09/03 08:49:03;;;;;;;8.57;5.18;;;;;;;26.80;35.15;97019.50;4982537;28;20030;-33
2021/09/03 08:51:28;;;;;;;11.60;5.50;;;;;;;26.83;35.25;97015.84;4980334;28;20080;-31
2021/09/03 08:53:53;;;;;;;7.13;4.95;;;;;;;26.84;35.27;97021.03;4987120;28;20532;-30
2021/09/03 08:56:22;;;;;;;8.52;5.63;;;;;;;26.85;35.27;97017.44;4985301;28;20033;-33
2021/09/03 08:58:48;;;;;;;11.77;5.40;;;;;;;26.86;35.27;97018.31;4980907;28;20025;-28
2021/09/03 09:01:16;;;;;;;10.02;5.22;;;;;;;26.88;35.27;97030.44;4983420;28;20053;-31
2021/09/03 09:03:43;;;;;;;10.65;5.63;;;;;;;26.90;35.29;97019.00;5000890;28;20034;-30
2021/09/03 09:06:08;;;;;;;10.57;5.50;;;;;;;26.92;35.38;97022.41;4986999;28;20551;-33
2021/09/03 09:08:34;;;;;;;9.48;5.43;;;;;;;26.94;35.32;97031.03;4980993;28;20030;-30
2021/09/03 09:11:02;;;;;;;9.13;5.22;;;;;;;26.93;35.37;97024.91;4985482;28;20491;-30
2021/09/03 09:13:35;;;;;;;9.48;4.93;;;;;;;26.96;35.47;97031.84;4985019;28;20116;-30
2021/09/03 09:16:06;;;;;;;7.75;5.00;;;;;;;26.97;35.40;97030.91;4989284;28;20030;-28
2021/09/03 09:18:37;;;;;;;11.75;4.68;;;;;;;26.98;35.46;97030.84;4984791;28;20113;-32
2021/09/03 09:21:22;;;;;;;9.13;5.35;;;;;;;27.01;35.51;97027.19;4984101;28;20030;-32
2021/09/03 09:23:48;;;;;;;9.30;4.82;;;;;;;27.00;35.60;97022.84;4981612;28;20026;-29
2021/09/03 09:26:14;;;;;;;8.23;4.93;;;;;;;27.00;35.46;97018.44;4983218;28;20121;-29
2021/09/03 09:28:40;;;;;;;7.13;4.93;;;;;;;27.02;35.49;97020.13;4985043;28;20750;-32
2021/09/03 09:31:05;;;;;;;9.48;4.78;;;;;;;27.02;35.51;97013.09;4984218;28;20042;-30
2021/09/03 09:33:31;;;;;;;7.43;4.53;;;;;;;27.02;35.64;97010.47;4985075;28;20030;-30
2021/09/03 09:35:58;;;;;;;8.50;4.95;;;;;;;27.04;35.65;97005.13;5001851;28;20037;-29
2021/09/03 09:38:25;;;;;;;7.20;4.45;;;;;;;27.04;35.64;97011.22;4982140;28;20034;-27
2021/09/03 09:40:52;;;;;;;6.57;4.65;;;;;;;27.05;35.67;97002.41;4976531;28;20100;-31
2021/09/03 09:43:34;;;;;;;8.80;4.60;;;;;;;27.07;35.65;97010.19;4977886;28;20030;-30
2021/09/03 09:46:20;;;;;;;7.60;4.32;;;;;;;27.06;35.66;97004.09;4962217;28;20049;-30
2021/09/03 09:48:49;;;;;;;7.38;4.38;;;;;;;27.08;35.71;97001.41;4979692;28;20033;-30
2021/09/03 09:51:24;;;;;;;7.35;4.85;;;;;;;27.08;35.79;97004.84;4982752;28;20045;-31
2021/09/03 09:54:02;;;;;;;7.95;4.47;;;;;;;27.08;35.69;96990.88;4974604;28;20049;-29
2021/09/03 09:56:29;;;;;;;6.28;4.30;;;;;;;27.09;35.74;96993.44;4978145;28;20018;-29
2021/09/03 09:58:56;;;;;;;7.78;4.70;;;;;;;27.10;35.81;96997.75;4974757;28;20031;-30
2021/09/03 10:01:21;;;;;;;7.55;4.30;;;;;;;27.11;35.81;96993.31;4984802;28;20026;-30
2021/09/03 10:03:51;;;;;;;6.68;4.32;;;;;;;27.12;35.92;96990.59;4975429;28;20687;-32
2021/09/03 10:06:18;;;;;;;7.35;3.92;;;;;;;27.12;35.87;96990.59;4975657;28;20496;-30
2021/09/03 10:08:48;;;;;;;8.00;4.53;;;;;;;27.15;35.93;96986.13;4973792;28;20048;-28
2021/09/03 10:11:17;;;;;;;6.30;4.10;;;;;;;27.15;35.88;96983.50;4975862;28;20038;-30
2021/09/03 10:13:42;;;;;;;8.60;4.30;;;;;;;27.16;35.91;96990.44;4975651;28;20480;-28
2021/09/03 10:16:08;;;;;;;5.82;4.13;;;;;;;27.16;35.92;96986.03;4967662;28;20089;-32
2021/09/03 10:18:34;;;;;;;5.90;3.97;;;;;;;27.17;35.87;96984.25;4990835;28;20392;-30
2021/09/03 10:21:00;;;;;;;8.15;4.20;;;;;;;27.18;35.99;96985.94;4971832;28;20038;-29
2021/09/03 10:23:52;;;;;;;5.22;4.05;;;;;;;27.19;35.95;96982.38;4975611;28;20022;-30
2021/09/03 10:26:19;;;;;;;;;;;;;;;27.18;36.14;96975.41;4977200;28;20030;-30
2021/09/03 10:28:45;;;;;;;6.65;3.85;;;;;;;27.20;35.93;96973.56;4973605;28;19921;-29
2021/09/03 10:31:10;;;;;;;5.63;3.78;;;;;;;27.20;36.05;96976.19;4973515;28;20037;-29
2021/09/03 10:33:37;;;;;;;8.02;4.13;;;;;;;27.20;36.09;96981.44;4974798;28;20026;-30
2021/09/03 10:36:03;;;;;;;5.47;3.80;;;;;;;27.20;36.00;96973.56;4977791;28;20113;-29
2021/09/03 10:38:29;;;;;;;8.57;4.38;;;;;;;27.20;36.09;96968.28;4976707;28;20034;-29
2021/09/03 10:40:54;;;;;;;7.93;4.13;;;;;;;27.22;36.21;96963.78;4974592;28;20757;-28
2021/09/03 10:43:39;;;;;;;8.25;4.03;;;;;;;27.22;36.10;96971.69;4975475;28;20030;-31
2021/09/03 10:46:06;;;;;;;6.88;3.92;;;;;;;27.21;36.23;96965.59;4976402;28;20490;-28
2021/09/03 10:48:32;;;;;;;7.00;3.65;;;;;;;27.22;36.18;96963.78;4959060;28;20037;-32
2021/09/03 10:50:59;;;;;;;5.60;3.45;;;;;;;27.23;36.21;96962.88;4974882;28;20030;-30
2021/09/03 10:53:31;;;;;;;5.43;3.90;;;;;;;27.24;36.38;96961.94;4976069;28;20474;-31
2021/09/03 10:56:05;;;;;;;5.47;3.45;;;;;;;27.24;36.34;96960.13;4975654;28;20092;-28
2021/09/03 10:58:37;;;;;;;5.35;3.83;;;;;;;27.26;36.26;96957.41;4974736;28;20066;-30
2021/09/03 11:01:11;;;;;;;5.18;3.55;;;;;;;27.25;36.34;96958.34;4972621;28;20915;-30
2021/09/03 11:03:44;;;;;;;5.13;3.58;;;;;;;27.27;36.44;96959.13;4973150;28;20049;-31
2021/09/03 11:06:27;;;;;;;4.20;3.28;;;;;;;27.27;36.48;96956.50;4972109;28;20040;-31
2021/09/03 11:09:00;;;;;;;9.38;3.72;;;;;;;27.28;36.49;96950.28;4973268;28;20108;-28
2021/09/03 11:11:31;;;;;;;4.32;3.10;;;;;;;27.29;36.45;96954.63;4975115;28;20038;-33
2021/09/03 11:14:10;;;;;;;5.15;3.30;;;;;;;27.29;36.61;96951.97;4971832;28;20032;-30
2021/09/03 11:16:47;;;;;;;5.80;3.20;;;;;;;27.30;36.57;96947.59;4978831;28;20029;-29
2021/09/03 11:19:14;;;;;;;4.90;3.40;;;;;;;27.31;36.55;96939.56;4984937;28;20119;-30
2021/09/03 11:21:47;;;;;;;4.65;3.53;;;;;;;27.31;36.76;96944.84;4976658;28;20036;-31
2021/09/03 11:24:14;;;;;;;5.10;3.53;;;;;;;27.32;36.49;96941.28;4976873;28;20061;-30
2021/09/03 11:26:40;;;;;;;4.40;3.40;;;;;;;27.32;36.75;96943.94;4973870;28;20789;-31
2021/09/03 11:29:15;;;;;;;3.85;2.97;;;;;;;27.34;36.76;96943.84;4975786;28;20028;-28